Atlanta, GA (30356)

7:36 PM EST on February 12, 2016 (GMT -0500)
Dunwoody Station | | Change Station
CLOSE
Current Station
Personal Weather Station
Location: Dunwoody, GA
Elevation: 1138 ft
Nearby Weather Stations

Elev 1138 ft 33.94 °N, 84.34 °W | Updated 13 minutes ago

Clear
Clear
51.8 °F
Feels Like 51.8 °F
N
3.7
Wind Variable Wind from NNE

Today
High -- | Low -- °F
--% Chance of Precip.
Yesterday
High -- | Low -- °F
Precip. -- in
Pressure 30.09 in
Visibility 10.0 miles
Clouds Clear
Dew Point 29 °F
Humidity 41%
Rainfall 0.00 in
Snow Depth Not available.
7:25 AM 6:18 PM
Waxing Crescent, 25% visible
METAR KPDK 122353Z 28010KT 10SM CLR 12/M01 A3008 RMK AO2 SLP190 T01221006 10161 20122 53014
Pressure 30.09 in
Visibility 10.0 miles
Clouds Clear
Dew Point 29 °F
Humidity 41%
Rainfall 0.00 in
Snow Depth Not available.
7:25 AM 6:18 PM
Waxing Crescent, 25% visible
METAR KPDK 122353Z 28010KT 10SM CLR 12/M01 A3008 RMK AO2 SLP190 T01221006 10161 20122 53014

10-Day Weather Forecast

Almanac

Astronomy

Feb. 12, 2016 Rise Set
Actual Time
Civil Twilight
Nautical Twilight
Astronomical Twilight
Moon
Length of Visible Light
Length of Day
Tomorrow will be .
, % of the Moon is Illuminated

Today's Extremes

State Highs State Lows

Community

WunderPhotos

Upload Photos

1,892,444 photos uploaded!

WunderBlog® & News

Nearby

Air Quality

  Air Quality AQ Index Pollutant
Not available.

Snow Depth

Station Depth Elevation

Earthquake Activity

City Distance Mag. Time & Date
Minimum magnitude displayed is 2.5.

Coastal Water Temperatures

Place Temperature

Stations

Nearby Weather Stations

Station Location Temp. Windchill Dew Point Humidity Wind Precip. Elev Updated Type
                   

Watches & Warnings

There are currently no watches in effect.